Terminal Aerodrome Forecast
Issued by NWS

Home | Current Version | Previous Version | Text Only | Print | Product List | Glossary On
Versions: 1 2 3 4 5 6 7 8 9 10 11 12 13 14 15 16 17 18 19 20 21 22 23 24 25 26 27 28 29 30 31 32 33 34
000
FTUS43 KDLH 311100
TAFBRD
TAF
KBRD 311134Z 3112/0112 00000KT P6SM BKN015
      TEMPO 3112/3115 OVC008
     FM311500 15008KT P6SM VCSH OVC030
     FM311700 17015G25KT P6SM SCT050
     FM312100 18011G17KT P6SM VCTS BKN060CB
     FM010100 25007KT 5SM -SHRA VCTS BKN035CB PROB30 0102/0105 2SM
      TSRA OVC025CB=

USA.gov is the U.S. government's official web portal to all federal, state and local government web resources and services.